Airfield :
LOGIN :

Register | Disclaimer

   EN    FR    IT 

 










Legend :    VFR   Marginal VFR   IFR   Intensive IFR   Very Intensive IFR
Visi :
Ceiling :
>= 8 km
>= 3000ft
5 to 8 km
1000 to 3000 ft
1500m to 5 km
500 to 1000 ft
800 to 1500m
200 to 500 ft
< 800m
< 200 ft
Symbols :   Thunderstorms  Fog  Heavy snow  Heavy precipitations  Wind > 20 kt
SIGMETs :     Misc.  Thunderstorms  Icing  Turbulence  Mountain Waves  Volcanic Ashes






- Airport Elevation : 266 ft
- IATA code : NCL


EGNT - Newcastle

CURRENT METAR :
  • 110320Z AUTO 19009KT 160V220 9999 NCD 07/04 Q1002

EXPIRED METARs :
  • 110250Z AUTO 18011KT 150V210 9999 NCD 08/04 Q1002
  • 110220Z AUTO 19012KT 160V220 9999 NCD 08/04 Q1001
  • 110150Z AUTO 19013KT 9999 NCD 08/04 Q1001
  • 110120Z AUTO 19011KT 9999 NCD 09/04 Q1001
  • 110050Z AUTO 19011KT 170V230 9999 NCD 09/04 Q1001

TAF TAF EGNT
Valid from the 11 at 00:00 until the 12 at 00:00 UTC


102258Z 1100/1124 19009KT 9999 SCT040
TEMPO 1100/1104 20015G28KT
BECMG 1111/1114 13012KT
TEMPO 1112/1124 7000 SHRA
PROB30
TEMPO 1113/1122 3000 +SHRAGS BKN014 BKN025CB
BECMG 1115/1118 07008KT
ATIS : +44 191 214 3400



MET'MAP, your aeronautical weather chart ! - Copyright ORBIFLY December 2007 - Disclaimer

ORBIFLY MET'MAP TEAM :

Programming & Development : Alexandra Zaïnal
Concept & original design : Baudouin d'Aumeries
Assistance for programming : Marc-Olivier Méhu
Technical & hardware support : Manuel Goepfert

Contact : metmap@orbifly.com




SOURCES & CREDITS :

   NOAA